Latest Weather Observations for Taree Airport

IDN60801

Issued at 7:32 pm EDT Wednesday 22 February 2017 (issued every 30 minutes, with the page automatically refreshed every 10 minutes)

About weather observations | Map of weather stations | Latest weather observations for NSW | Other Formats
Station Details ID: 060141 Name: TAREE AIRPORT AWS Lat: -31.89 Lon: 152.51 Height: 8.0 m
Data from the previous 72 hours. | See also: Recent months at Taree Airport
Date/Time
EDT
Temp
°C
App
Temp
°C
Dew
Point
°C
Rel
Hum
%
Delta-T
°C
Wind Press
QNH
hPa
Press
MSL
hPa
Rain since
9am
mm
Dir  Spd
km/h
Gust
km/h
Spd
kts
Gust
kts
22/07:30pm 23.6 20.9 15.6 61 4.8 ENE 24 32 13 17 1018.9 1018.8 0.0
22/07:00pm 24.4 20.2 15.6 58 5.3 ENE 32 39 17 21 1018.6 1018.5 0.0
22/06:30pm 25.0 20.8 15.6 56 5.7 ENE 32 39 17 21 1018.4 1018.3 0.0
22/06:00pm 26.0 21.6 15.1 51 6.6 NE 32 39 17 21 1018.2 1018.1 0.0
22/05:30pm 26.2 22.2 15.3 51 6.6 ENE 30 39 16 21 1018.2 1018.1 0.0
22/05:00pm 26.9 22.9 16.2 52 6.6 ENE 32 41 17 22 1018.2 1018.1 0.0
22/04:30pm 27.3 24.1 16.3 51 6.8 ENE 28 39 15 21 1018.3 1018.2 0.0
22/04:00pm 27.7 24.4 16.9 51 6.7 ENE 30 41 16 22 1018.5 1018.4 0.0
22/03:30pm 27.1 23.7 15.8 50 6.9 E 28 41 15 22 1018.6 1018.5 0.0
22/03:00pm 28.0 24.9 16.6 50 7.1 E 28 37 15 20 1018.9 1018.8 0.0
22/02:30pm 28.0 24.4 15.3 46 7.7 E 28 41 15 22 1019.2 1019.1 0.0
22/02:00pm 27.6 23.9 14.9 45 7.7 E 28 43 15 23 1019.4 1019.3 0.0
22/01:30pm 27.5 24.4 15.5 48 7.3 E 26 35 14 19 1019.8 1019.7 0.0
22/01:00pm 27.0 24.2 15.4 49 7.0 E 24 35 13 19 1020.0 1019.9 0.0
22/12:30pm 27.5 25.1 16.5 51 6.8 E 24 33 13 18 1020.4 1020.3 0.0
22/12:00pm 26.5 24.9 16.1 52 6.4 E 19 28 10 15 1020.8 1020.7 0.0
22/11:30am 27.6 26.3 16.9 52 6.7 NE 19 30 10 16 1021.1 1021.0 0.0
22/11:00am 27.3 25.9 16.6 52 6.6 NE 19 28 10 15 1021.4 1021.3 0.0
22/10:30am 25.9 24.5 15.6 53 6.3 NE 17 33 9 18 1021.4 1021.3 0.0
22/10:00am 26.0 24.6 16.5 55 5.8 NE 19 26 10 14 1021.5 1021.5 0.0
22/09:30am 25.3 23.6 16.2 57 5.6 NE 20 32 11 17 1021.5 1021.5 0.0
22/09:00am 24.5 25.4 17.5 65 4.3 NE 9 13 5 7 1021.5 1021.5 0.0
22/08:30am 22.4 25.0 17.5 74 3.0 CALM 0 0 0 0 1021.3 1021.2 0.0
22/08:00am 21.0 23.9 18.2 84 1.7 CALM 0 0 0 0 1021.2 1021.1 0.0
22/07:30am 20.0 23.0 18.5 91 0.9 CALM 0 0 0 0 1020.9 1020.8 0.0
22/07:00am 19.2 21.7 17.3 89 1.2 CALM 0 0 0 0 1020.7 1020.6 0.0
22/06:30am 19.2 21.8 17.5 90 1.0 CALM 0 0 0 0 1020.4 1020.3 0.0
22/06:00am 19.3 21.9 17.4 89 1.2 CALM 0 0 0 0 1020.0 1019.9 0.0
22/05:30am 19.6 22.2 17.6 88 1.2 CALM 0 0 0 0 1019.8 1019.7 0.0
22/05:00am 20.0 22.7 17.8 87 1.4 CALM 0 0 0 0 1019.7 1019.6 0.0
22/04:30am 19.8 22.2 17.0 84 1.7 CALM 0 0 0 0 1019.4 1019.3 0.0
22/04:00am 20.1 22.4 16.7 81 2.1 CALM 0 0 0 0 1019.3 1019.2 0.0
22/03:30am 19.3 21.4 16.3 83 1.8 CALM 0 0 0 0 1019.4 1019.3 0.0
22/03:00am 19.6 21.6 15.9 79 2.2 CALM 0 0 0 0 1019.5 1019.4 0.0
22/02:30am 20.1 20.8 15.7 76 2.6 NNW 6 11 3 6 1019.8 1019.7 0.0
22/02:00am 20.4 22.2 15.4 73 3.0 CALM 0 0 0 0 1019.8 1019.7 0.0
22/01:30am 21.2 22.6 15.5 70 3.4 E 2 6 1 3 1020.0 1019.9 0.0
22/01:00am 21.4 22.0 15.9 71 3.3 E 7 9 4 5 1020.4 1020.3 0.0
22/12:30am 21.8 22.5 16.1 70 3.4 ENE 7 7 4 4 1020.6 1020.5 0.0
22/12:00am 22.0 22.3 16.1 69 3.5 NE 9 11 5 6 1020.6 1020.5 0.0
 
Date/Time
EDT
Temp
°C
App
Temp
°C
Dew
Point
°C
Rel
Hum
%
Delta-T
°C
Wind Press
QNH
hPa
Press
MSL
hPa
Rain since
9am
mm
Dir  Spd
km/h
Gust
km/h
Spd
kts
Gust
kts
21/11:30pm 22.3 23.0 16.1 68 3.7 E 7 11 4 6 1020.9 1020.8 0.0
21/11:00pm 22.5 23.5 16.3 68 3.7 ENE 6 7 3 4 1021.1 1021.0 0.0
21/10:30pm 22.8 23.3 15.6 64 4.3 ENE 7 11 4 6 1021.2 1021.1 0.0
21/10:00pm 22.9 23.6 16.2 66 4.1 NE 7 9 4 5 1021.2 1021.1 0.0
21/09:30pm 23.0 22.8 15.8 64 4.3 ENE 11 15 6 8 1021.1 1021.0 0.0
21/09:00pm 22.9 22.5 16.2 66 4.1 ENE 13 17 7 9 1020.7 1020.6 0.0
21/08:30pm 23.1 22.2 15.9 64 4.3 ENE 15 20 8 11 1020.2 1020.1 0.0
21/08:00pm 23.2 21.6 16.0 64 4.3 ENE 19 28 10 15 1019.9 1019.8 0.0
21/07:30pm 23.4 21.8 16.0 63 4.5 ENE 19 24 10 13 1019.3 1019.2 0.0
21/07:00pm 23.9 21.2 15.7 60 4.9 ENE 24 33 13 18 1018.9 1018.8 0.0
21/06:30pm 24.8 21.1 15.1 54 5.8 ENE 28 37 15 20 1018.5 1018.4 0.0
21/06:00pm 25.0 21.1 14.5 52 6.2 ENE 28 37 15 20 1018.2 1018.1 0.0
21/05:30pm 25.1 21.2 14.3 51 6.4 ENE 28 35 15 19 1018.2 1018.1 0.0
21/05:00pm 25.5 22.9 14.9 52 6.3 ENE 22 28 12 15 1018.0 1017.9 0.0
21/04:30pm 25.1 21.9 14.3 51 6.4 ENE 24 32 13 17 1017.8 1017.7 0.0
21/04:00pm 26.5 23.5 14.9 49 7.0 E 24 33 13 18 1017.7 1017.6 0.0
21/03:30pm 26.5 23.8 15.5 50 6.7 E 24 35 13 19 1017.6 1017.5 0.0
21/03:00pm 26.8 23.5 14.9 48 7.2 E 26 41 14 22 1017.7 1017.6 0.0
21/02:30pm 26.6 23.1 15.6 50 6.7 E 28 39 15 21 1017.9 1017.8 0.0
21/02:00pm 25.9 22.7 15.3 52 6.4 E 26 37 14 20 1018.2 1018.1 0.0
21/01:30pm 27.1 24.6 17.0 54 6.3 E 26 35 14 19 1018.5 1018.4 0.0
21/01:00pm 26.6 23.7 16.2 52 6.4 E 26 33 14 18 1018.6 1018.5 0.0
21/12:30pm 26.2 24.0 15.9 53 6.3 ESE 22 35 12 19 1018.8 1018.7 0.0
21/12:00pm 26.6 24.6 16.5 54 6.2 ESE 22 32 12 17 1018.9 1018.8 0.0
21/11:30am 26.5 24.7 15.5 50 6.7 ENE 19 33 10 18 1019.1 1019.0 0.0
21/11:00am 26.1 25.4 15.5 52 6.4 ENE 13 20 7 11 1019.2 1019.1 0.0
21/10:30am 25.0 25.2 14.8 53 6.1 ESE 7 17 4 9 1019.3 1019.2 0.0
21/10:00am 23.5 23.5 14.2 56 5.5 SSW 7 9 4 5 1019.1 1019.0 0.0
21/09:30am 21.9 21.6 14.3 62 4.4 WSW 9 13 5 7 1019.0 1018.9 0.0
21/09:00am 20.2 19.4 12.9 63 4.1 WSW 9 11 5 6 1018.9 1018.8 0.2
21/08:30am 18.8 18.8 14.1 74 2.7 W 7 9 4 5 1018.4 1018.3 0.2
21/08:00am 17.1 16.3 13.0 77 2.3 W 9 11 5 6 1018.0 1017.9 0.2
21/07:30am 15.9 15.6 12.8 82 1.7 WNW 6 9 3 5 1017.6 1017.5 0.2
21/07:00am 15.1 14.3 13.0 87 1.2 W 9 11 5 6 1017.3 1017.2 0.2
21/06:30am 14.7 14.5 13.1 90 0.9 W 6 7 3 4 1017.0 1016.9 0.2
21/06:00am 14.5 14.2 13.4 93 0.6 WSW 7 9 4 5 1016.9 1016.8 0.2
21/05:30am 13.5 14.3 12.7 95 0.4 CALM 0 0 0 0 1016.5 1016.4 0.2
21/05:00am 13.5 13.8 12.2 92 0.7 NW 2 6 1 3 1016.3 1016.2 0.2
21/04:30am 15.2 14.9 12.7 85 1.4 WNW 6 7 3 4 1016.1 1016.0 0.2
21/04:00am 15.3 15.3 13.7 90 0.9 WSW 6 7 3 4 1015.7 1015.6 0.2
21/03:30am 14.9 14.7 13.6 92 0.7 WSW 7 9 4 5 1015.9 1015.8 0.2
21/03:00am 14.2 15.0 12.6 90 0.9 CALM 0 0 0 0 1015.9 1015.8 0.2
21/02:30am 14.5 15.3 12.5 88 1.1 CALM 0 0 0 0 1016.0 1015.9 0.2
21/02:00am 15.9 15.7 13.0 83 1.6 WNW 6 7 3 4 1016.1 1016.0 0.2
21/01:30am 15.8 15.6 12.9 83 1.6 WSW 6 7 3 4 1016.3 1016.2 0.2
21/01:00am 16.3 17.1 13.8 85 1.4 W 2 7 1 4 1016.3 1016.2 0.2
21/12:30am 16.4 17.6 13.9 85 1.4 CALM 0 0 0 0 1016.4 1016.3 0.2
21/12:00am 16.6 17.8 13.7 83 1.6 CALM 0 0 0 0 1016.3 1016.2 0.2
 
Date/Time
EDT
Temp
°C
App
Temp
°C
Dew
Point
°C
Rel
Hum
%
Delta-T
°C
Wind Press
QNH
hPa
Press
MSL
hPa
Rain since
9am
mm
Dir  Spd
km/h
Gust
km/h
Spd
kts
Gust
kts
20/11:30pm 17.0 18.2 13.7 81 1.9 CALM 0 0 0 0 1016.1 1016.0 0.2
20/11:00pm 17.1 18.1 13.2 78 2.2 CALM 0 0 0 0 1016.2 1016.1 0.2
20/10:30pm 18.0 19.2 13.9 77 2.3 CALM 0 0 0 0 1016.0 1015.9 0.2
20/10:00pm 18.3 19.3 13.2 72 2.9 CALM 0 0 0 0 1015.8 1015.7 0.2
20/09:30pm 18.7 19.4 12.2 66 3.6 CALM 0 0 0 0 1015.5 1015.4 0.2
20/09:00pm 18.9 19.4 11.7 63 4.0 CALM 0 0 0 0 1015.2 1015.1 0.2
20/08:30pm 19.8 20.3 11.6 59 4.5 CALM 0 0 0 0 1014.6 1014.5 0.2
20/08:00pm 20.9 20.0 11.5 55 5.2 E 7 9 4 5 1013.9 1013.8 0.2
20/07:30pm 21.7 20.4 11.1 51 5.9 E 9 13 5 7 1013.2 1013.1 0.2
20/07:00pm 22.9 20.6 10.3 45 6.9 E 13 17 7 9 1012.6 1012.5 0.2
20/06:30pm 23.5 19.9 9.9 42 7.4 E 19 26 10 14 1012.1 1012.0 0.2
20/06:00pm 24.0 20.1 8.8 38 8.2 E 19 26 10 14 1011.5 1011.4 0.2
20/05:30pm 24.5 20.8 9.6 39 8.1 ESE 19 28 10 15 1011.2 1011.1 0.2
20/05:00pm 24.3 20.2 8.7 37 8.4 ESE 20 30 11 16 1010.9 1010.8 0.2
20/04:30pm 24.3 20.1 7.4 34 8.9 E 19 26 10 14 1010.6 1010.5 0.2
20/04:00pm 24.4 20.0 6.6 32 9.2 ENE 19 28 10 15 1010.4 1010.3 0.2
20/03:30pm 24.8 20.7 8.7 36 8.7 ESE 20 28 11 15 1010.3 1010.2 0.2
20/03:00pm 24.3 20.3 8.3 36 8.5 ESE 19 28 10 15 1010.4 1010.3 0.2
20/02:30pm 24.0 19.2 7.2 34 8.8 E 22 28 12 15 1010.5 1010.4 0.2
20/02:00pm 24.6 20.9 9.3 38 8.3 ESE 19 24 10 13 1010.6 1010.5 0.2
20/01:30pm 24.8 21.7 10.3 40 8.0 SE 17 22 9 12 1010.6 1010.5 0.2
20/01:00pm 24.6 22.1 8.1 35 8.8 SE 11 20 6 11 1011.0 1010.9 0.2
20/12:30pm 24.9 21.3 8.4 35 8.8 SE 17 28 9 15 1011.2 1011.1 0.2
20/12:00pm 24.4 21.3 5.7 30 9.5 S 11 17 6 9 1011.6 1011.5 0.2
20/11:30am 24.6 22.1 6.4 31 9.4 NW 9 17 5 9 1011.8 1011.7 0.2
20/11:00am 24.4 22.2 8.0 35 8.7 W 9 15 5 8 1011.9 1011.8 0.0
20/10:30am 24.1 20.3 5.9 31 9.3 WSW 15 22 8 12 1012.0 1011.9 0.0
20/10:00am 22.9 20.9 8.6 40 7.6 WSW 9 13 5 7 1012.0 1011.9 0.0
20/09:30am 22.3 19.6 9.1 43 7.1 SW 13 19 7 10 1011.7 1011.6 0.0
20/09:00am 21.8 20.1 10.0 47 6.4 WSW 9 13 5 7 1011.4 1011.3 42.0
20/08:30am 20.0 19.3 12.0 60 4.5 W 7 9 4 5 1011.2 1011.1 42.0
20/08:00am 19.1 20.4 14.1 73 2.9 CALM 0 0 0 0 1011.0 1010.9 42.0
20/07:30am 18.1 17.6 13.8 76 2.4 WSW 9 13 5 7 1010.5 1010.4 42.0
20/07:00am 16.4 16.9 15.1 92 0.8 W 6 9 3 5 1010.1 1010.0 42.0
20/06:30am 16.3 16.4 14.0 86 1.3 W 6 7 3 4 1009.7 1009.6 42.0
20/06:00am 18.1 17.4 15.4 84 1.6 W 13 15 7 8 1009.2 1009.1 42.0
20/05:30am 18.4 18.9 15.6 84 1.6 W 7 13 4 7 1008.8 1008.7 42.0
20/05:00am 18.7 19.1 16.3 86 1.4 SW 9 11 5 6 1008.4 1008.3 42.0
20/04:30am 19.5 20.1 16.9 85 1.6 SW 9 11 5 6 1007.9 1007.8 42.0
20/04:00am 19.9 20.7 17.3 85 1.6 SW 9 13 5 7 1007.3 1007.2 42.0
20/03:30am 19.3 21.0 18.1 93 0.7 W 6 9 3 5 1006.7 1006.6 42.0
20/03:00am 19.6 22.5 18.1 91 0.9 CALM 0 4 0 2 1006.5 1006.4 42.0
20/02:30am 20.0 21.5 18.1 89 1.2 SSW 7 9 4 5 1006.2 1006.1 42.0
20/02:00am 19.6 20.3 17.0 85 1.6 SSW 9 15 5 8 1005.8 1005.7 42.0
20/01:30am 20.2 21.7 18.0 87 1.4 SW 7 11 4 6 1005.6 1005.5 42.0
20/01:00am 20.4 21.8 17.8 85 1.6 WNW 7 11 4 6 1005.7 1005.6 42.0
20/12:30am 20.6 21.4 17.4 82 2.0 W 9 9 5 5 1005.8 1005.7 42.0
20/12:00am 21.1 21.4 16.9 77 2.6 WNW 11 17 6 9 1005.7 1005.6 42.0
 
Date/Time
EDT
Temp
°C
App
Temp
°C
Dew
Point
°C
Rel
Hum
%
Delta-T
°C
Wind Press
QNH
hPa
Press
MSL
hPa
Rain since
9am
mm
Dir  Spd
km/h
Gust
km/h
Spd
kts
Gust
kts
19/11:30pm 20.0 21.3 17.6 86 1.5 NNW 7 11 4 6 1006.0 1005.9 42.0
19/11:00pm 20.3 21.7 18.6 90 1.1 W 9 13 5 7 1006.2 1006.1 42.0
19/10:30pm 20.5 21.6 19.7 95 0.5 NE 13 20 7 11 1005.6 1005.5 42.0
19/10:00pm 20.7 23.5 20.5 99 0.1 W 6 9 3 5 1006.1 1006.0 41.8
19/09:30pm 20.5 22.7 20.5 100 0.0 N 9 20 5 11 1006.6 1006.5 41.8
19/09:00pm 20.5 23.3 20.5 100 0.0 NNE 6 11 3 6 1006.3 1006.2 41.8
19/08:30pm 20.6 22.9 20.6 100 0.0 WSW 9 11 5 6 1006.7 1006.6 41.8
19/08:00pm 20.5 24.5 20.5 100 0.0 CALM 0 7 0 4 1006.5 1006.4 41.8

Other Formats:

Comma delimited format used in spreadsheet applications
http://www.bom.gov.au/fwo/IDN60801/IDN60801.95784.axf

JavaScript Object Notation format (JSON) in row-major order
http://www.bom.gov.au/fwo/IDN60801/IDN60801.95784.json